Time;durP1;ratioP1;P1;durP2;ratioP2;P2;SDS_P1;SDS_P2;PMS_P1;PMS_P2;Temp;Humidity;BMP_temperature;BMP_pressure;BME280_temperature;BME280_humidity;BME280_pressure;Samples;Min_cycle;Max_cycle;Signal;HPM_P1;HPM_P2
2022/06/27 00:00:53;;;;;;;7.57;2.60;;;;;;;;;;5069685;28;20626;-72
2022/06/27 00:03:19;;;;;;;6.93;2.80;;;;;;;;;;5070216;28;20025;-71
2022/06/27 00:05:44;;;;;;;4.93;2.30;;;;;;;;;;5069780;28;20104;-71
2022/06/27 00:08:10;;;;;;;8.20;2.60;;;;;;;;;;5070127;28;20111;-71
2022/06/27 00:10:35;;;;;;;5.57;2.45;;;;;;;;;;5069849;28;20016;-71
2022/06/27 00:13:01;;;;;;;6.53;2.20;;;;;;;;;;5070093;28;20021;-71
2022/06/27 00:15:26;;;;;;;6.50;2.40;;;;;;;;;;5070106;28;20017;-72
2022/06/27 00:17:52;;;;;;;5.13;1.88;;;;;;;;;;5052060;28;20242;-73
2022/06/27 00:20:17;;;;;;;6.10;2.15;;;;;;;;;;5069964;28;20459;-71
2022/06/27 00:22:43;;;;;;;6.47;1.90;;;;;;;;;;5069683;28;20020;-71
2022/06/27 00:25:09;;;;;;;5.93;1.83;;;;;;;;;;5069738;28;20028;-72
2022/06/27 00:27:35;;;;;;;3.83;1.67;;;;;;;;;;5051751;28;20046;-71
2022/06/27 00:30:00;;;;;;;3.25;1.63;;;;;;;;;;5069743;28;20024;-72
2022/06/27 00:32:26;;;;;;;3.78;1.50;;;;;;;;;;5069720;28;20113;-71
2022/06/27 00:34:53;;;;;;;4.68;1.70;;;;;;;;;;5069899;28;20491;-75
2022/06/27 00:37:18;;;;;;;4.93;1.73;;;;;;;;;;5069301;28;20044;-75
2022/06/27 00:39:44;;;;;;;4.82;1.58;;;;;;;;;;5069902;28;20526;-71
2022/06/27 00:42:09;;;;;;;8.07;2.30;;;;;;;;;;5069579;28;20024;-71
2022/06/27 00:44:36;;;;;;;3.63;1.40;;;;;;;;;;5069476;28;20021;-71
2022/06/27 00:47:04;;;;;;;6.88;1.80;;;;;;;;;;5069456;28;20396;-71
2022/06/27 00:49:29;;;;;;;6.25;1.90;;;;;;;;;;5069660;28;20049;-71
2022/06/27 00:51:55;;;;;;;4.22;1.85;;;;;;;;;;5069124;28;20035;-71
2022/06/27 00:54:22;;;;;;;8.60;1.95;;;;;;;;;;5069698;28;20019;-75
2022/06/27 00:56:48;;;;;;;6.10;1.60;;;;;;;;;;5069632;28;20395;-74
2022/06/27 00:59:13;;;;;;;3.47;1.40;;;;;;;;;;5069662;28;20025;-76
2022/06/27 01:01:42;;;;;;;3.78;1.70;;;;;;;;;;5069451;28;20431;-72
2022/06/27 01:04:08;;;;;;;7.30;1.60;;;;;;;;;;5069458;28;20476;-73
2022/06/27 01:06:33;;;;;;;3.40;1.50;;;;;;;;;;5068889;28;20107;-77
2022/06/27 01:08:59;;;;;;;4.15;1.80;;;;;;;;;;5069481;28;20028;-76
2022/06/27 01:11:25;;;;;;;5.25;1.60;;;;;;;;;;5069425;28;20029;-71
2022/06/27 01:13:51;;;;;;;5.70;1.90;;;;;;;;;;5072785;28;20606;-72
2022/06/27 01:16:18;;;;;;;6.40;1.58;;;;;;;;;;5073343;28;20025;-70
2022/06/27 01:18:44;;;;;;;4.35;1.70;;;;;;;;;;5073490;28;20032;-70
2022/06/27 01:21:18;;;;;;;4.82;1.85;;;;;;;;;;5072816;28;20090;-71
2022/06/27 01:23:43;;;;;;;6.45;1.80;;;;;;;;;;5073202;28;20044;-71
2022/06/27 01:26:09;;;;;;;7.05;2.10;;;;;;;;;;5072893;28;20024;-70
2022/06/27 01:28:34;;;;;;;4.93;1.92;;;;;;;;;;5073352;28;20031;-72
2022/06/27 01:31:00;;;;;;;3.45;1.73;;;;;;;;;;5073328;28;20681;-71
2022/06/27 01:33:25;;;;;;;6.40;2.10;;;;;;;;;;5072954;28;20035;-71
2022/06/27 01:36:41;;;;;;;6.45;2.03;;;;;;;;;;5072929;28;20024;-70
2022/06/27 01:38:36;;;;;;;6.75;2.10;;;;;;;;;;5072652;28;20086;-71
2022/06/27 01:41:01;;;;;;;5.22;1.90;;;;;;;;;;5073028;28;20036;-72
2022/06/27 01:43:27;;;;;;;8.35;2.25;;;;;;;;;;5072617;28;20025;-71
2022/06/27 01:45:52;;;;;;;7.75;2.10;;;;;;;;;;5072760;28;20029;-72
2022/06/27 01:48:18;;;;;;;5.93;2.10;;;;;;;;;;5072586;28;20028;-73
2022/06/27 01:50:49;;;;;;;5.78;1.98;;;;;;;;;;5072578;28;20551;-75
2022/06/27 01:53:15;;;;;;;8.32;2.22;;;;;;;;;;5072628;28;20365;-74
2022/06/27 01:55:41;;;;;;;7.70;2.10;;;;;;;;;;5073134;28;20033;-74
2022/06/27 01:58:06;;;;;;;5.45;2.20;;;;;;;;;;5072692;28;20028;-76
2022/06/27 02:00:31;;;;;;;6.03;2.20;;;;;;;;;;5072628;28;20028;-74
2022/06/27 02:02:57;;;;;;;6.07;2.17;;;;;;;;;;5072257;28;20025;-77
2022/06/27 02:05:23;;;;;;;7.78;2.03;;;;;;;;;;5072469;28;20024;-74
2022/06/27 02:07:50;;;;;;;6.30;2.05;;;;;;;;;;5071838;28;20496;-74
2022/06/27 02:10:15;;;;;;;5.60;2.20;;;;;;;;;;5072723;28;20021;-77
2022/06/27 02:12:41;;;;;;;7.57;2.00;;;;;;;;;;5072406;28;20035;-73
2022/06/27 02:15:07;;;;;;;5.15;1.80;;;;;;;;;;5072677;28;20025;-74
2022/06/27 02:17:32;;;;;;;4.20;1.75;;;;;;;;;;5072288;28;20028;-76
2022/06/27 02:19:59;;;;;;;4.45;1.83;;;;;;;;;;5072374;28;20036;-75
2022/06/27 02:22:25;;;;;;;6.65;2.20;;;;;;;;;;5071551;28;20025;-72
2022/06/27 02:24:50;;;;;;;4.22;2.08;;;;;;;;;;5071412;28;20537;-72
2022/06/27 02:27:17;;;;;;;5.15;2.05;;;;;;;;;;5072183;28;20024;-75
2022/06/27 02:29:42;;;;;;;4.93;2.00;;;;;;;;;;5072607;28;20024;-75
2022/06/27 02:32:08;;;;;;;6.50;2.35;;;;;;;;;;5072354;28;20029;-75
2022/06/27 02:34:37;;;;;;;7.05;2.15;;;;;;;;;;5072096;28;20103;-77
2022/06/27 02:37:03;;;;;;;5.60;2.13;;;;;;;;;;5054176;28;20028;-76
2022/06/27 02:39:32;;;;;;;5.90;2.00;;;;;;;;;;5071829;28;20058;-76
2022/06/27 02:42:00;;;;;;;6.57;2.47;;;;;;;;;;5071775;28;20056;-76
2022/06/27 02:44:29;;;;;;;7.80;2.20;;;;;;;;;;5071735;28;20036;-75
2022/06/27 02:46:54;;;;;;;6.88;2.30;;;;;;;;;;5071792;28;20033;-75
2022/06/27 02:49:22;;;;;;;5.13;2.00;;;;;;;;;;5071927;28;20102;-74
2022/06/27 02:52:18;;;;;;;3.90;2.20;;;;;;;;;;5071539;28;20032;-74
2022/06/27 02:55:01;;;;;;;3.47;1.90;;;;;;;;;;5071697;28;20033;-73
2022/06/27 02:57:44;;;;;;;6.35;1.95;;;;;;;;;;5071464;28;20044;-76
2022/06/27 03:00:10;;;;;;;4.05;2.03;;;;;;;;;;5071434;28;20027;-75
2022/06/27 03:02:38;;;;;;;4.15;1.92;;;;;;;;;;5071358;28;20031;-74
2022/06/27 03:05:04;;;;;;;3.97;2.03;;;;;;;;;;5071279;28;20021;-73
2022/06/27 03:07:29;;;;;;;3.58;1.70;;;;;;;;;;5070956;28;20047;-75
2022/06/27 03:10:01;;;;;;;4.47;1.80;;;;;;;;;;5072031;28;20495;-75
2022/06/27 03:12:26;;;;;;;3.33;1.70;;;;;;;;;;5071487;28;20023;-76
2022/06/27 03:14:52;;;;;;;3.53;1.77;;;;;;;;;;5071542;28;20104;-75
2022/06/27 03:17:17;;;;;;;2.65;1.63;;;;;;;;;;5071366;28;20028;-74
2022/06/27 03:19:43;;;;;;;3.70;1.90;;;;;;;;;;5071827;28;20476;-74
2022/06/27 03:22:10;;;;;;;3.78;1.90;;;;;;;;;;5071201;28;20028;-71
2022/06/27 03:24:36;;;;;;;2.85;1.70;;;;;;;;;;5070895;28;20089;-72
2022/06/27 03:27:01;;;;;;;4.70;1.65;;;;;;;;;;5071279;28;20028;-71
2022/06/27 03:29:27;;;;;;;4.00;1.67;;;;;;;;;;5070949;28;20032;-71
2022/06/27 03:31:52;;;;;;;2.55;1.40;;;;;;;;;;5071269;28;20484;-72
2022/06/27 03:34:18;;;;;;;3.15;1.50;;;;;;;;;;5070423;28;20051;-72
2022/06/27 03:36:44;;;;;;;4.03;1.45;;;;;;;;;;5070096;28;20031;-71
2022/06/27 03:39:11;;;;;;;2.08;1.17;;;;;;;;;;5070683;28;20033;-72
2022/06/27 03:41:37;;;;;;;4.82;1.60;;;;;;;;;;5052876;28;20020;-72
2022/06/27 03:44:04;;;;;;;4.68;1.50;;;;;;;;;;5070603;28;20431;-71
2022/06/27 03:46:29;;;;;;;5.75;1.50;;;;;;;;;;5071092;28;20028;-71
2022/06/27 03:51:39;;;;;;;1.90;1.40;;;;;;;;;;5070721;28;20400;-71
2022/06/27 03:54:04;;;;;;;1.88;1.20;;;;;;;;;;5070537;28;20025;-72
2022/06/27 03:56:30;;;;;;;1.70;1.10;;;;;;;;;;5072482;28;20107;-72
2022/06/27 03:58:55;;;;;;;3.72;1.58;;;;;;;;;;5074159;28;20032;-72
2022/06/27 04:01:21;;;;;;;4.38;1.17;;;;;;;;;;5074729;28;20036;-71
2022/06/27 04:03:46;;;;;;;2.78;1.30;;;;;;;;;;5073990;28;20029;-72
2022/06/27 04:06:11;;;;;;;2.80;1.10;;;;;;;;;;5072742;28;20032;-72
2022/06/27 04:08:37;;;;;;;2.63;1.10;;;;;;;;;;5073575;28;20090;-72
2022/06/27 04:11:02;;;;;;;1.23;1.10;;;;;;;;;;5073574;28;20027;-74
2022/06/27 04:13:28;;;;;;;2.40;1.20;;;;;;;;;;5074446;28;20037;-72
2022/06/27 04:15:53;;;;;;;3.13;1.20;;;;;;;;;;5076659;28;20025;-72
2022/06/27 04:18:18;;;;;;;4.28;1.20;;;;;;;;;;5073856;28;20056;-72
2022/06/27 04:20:44;;;;;;;2.22;1.10;;;;;;;;;;5073269;28;20025;-72
2022/06/27 04:23:09;;;;;;;2.85;1.00;;;;;;;;;;5071767;28;20029;-71
2022/06/27 04:25:35;;;;;;;2.70;1.25;;;;;;;;;;5070168;28;20033;-74
2022/06/27 04:28:00;;;;;;;2.55;1.20;;;;;;;;;;5069956;28;20030;-74
2022/06/27 04:30:27;;;;;;;2.13;1.20;;;;;;;;;;5069928;28;20032;-72
2022/06/27 04:32:53;;;;;;;3.55;1.30;;;;;;;;;;5069981;28;20048;-73
2022/06/27 04:35:18;;;;;;;2.15;1.20;;;;;;;;;;5069552;28;20062;-73
2022/06/27 04:37:44;;;;;;;1.67;1.33;;;;;;;;;;5069435;28;20075;-72
2022/06/27 04:40:11;;;;;;;3.45;1.42;;;;;;;;;;5069152;28;20028;-75
2022/06/27 04:42:37;;;;;;;3.30;1.30;;;;;;;;;;5070040;28;20034;-75
2022/06/27 04:45:03;;;;;;;2.28;1.25;;;;;;;;;;5069778;28;20032;-71
2022/06/27 04:47:29;;;;;;;3.30;1.30;;;;;;;;;;5069635;28;20055;-73
2022/06/27 04:49:55;;;;;;;2.13;1.33;;;;;;;;;;5069329;28;20044;-72
2022/06/27 04:52:20;;;;;;;3.22;1.45;;;;;;;;;;5069323;28;20036;-73
2022/06/27 04:54:45;;;;;;;2.53;1.30;;;;;;;;;;5069693;28;20132;-75
2022/06/27 04:57:12;;;;;;;2.17;1.30;;;;;;;;;;5069690;28;20089;-74
2022/06/27 04:59:38;;;;;;;3.10;1.40;;;;;;;;;;5069221;28;20032;-73
2022/06/27 05:02:04;;;;;;;5.72;1.60;;;;;;;;;;5069672;28;20036;-74
2022/06/27 05:04:30;;;;;;;2.95;1.50;;;;;;;;;;5069363;28;20471;-72
2022/06/27 05:06:55;;;;;;;2.95;1.33;;;;;;;;;;5069228;28;20054;-74
2022/06/27 05:09:21;;;;;;;4.40;1.40;;;;;;;;;;5069741;28;20017;-74
2022/06/27 05:11:48;;;;;;;3.78;1.60;;;;;;;;;;5069302;28;20031;-75
2022/06/27 05:14:14;;;;;;;3.13;1.35;;;;;;;;;;5069276;28;20543;-75
2022/06/27 05:16:40;;;;;;;3.08;1.38;;;;;;;;;;5069380;28;20047;-72
2022/06/27 05:19:05;;;;;;;3.33;1.40;;;;;;;;;;5068753;28;20086;-73
2022/06/27 05:21:30;;;;;;;2.83;1.30;;;;;;;;;;5069125;28;20021;-71
2022/06/27 05:23:56;;;;;;;2.90;1.20;;;;;;;;;;5069278;28;20078;-73
2022/06/27 05:26:22;;;;;;;2.60;1.23;;;;;;;;;;5069571;28;20020;-74
2022/06/27 05:28:48;;;;;;;8.10;1.50;;;;;;;;;;5069176;28;20025;-72
2022/06/27 05:31:13;;;;;;;3.72;1.50;;;;;;;;;;5069188;28;20032;-71
2022/06/27 05:33:39;;;;;;;4.25;1.40;;;;;;;;;;5069373;28;20016;-72
2022/06/27 05:36:05;;;;;;;4.18;1.52;;;;;;;;;;5068764;28;20090;-72
2022/06/27 05:38:31;;;;;;;3.65;1.35;;;;;;;;;;5068981;28;20052;-72
2022/06/27 05:40:57;;;;;;;2.85;1.30;;;;;;;;;;5069183;28;20025;-71
2022/06/27 05:43:23;;;;;;;4.03;1.50;;;;;;;;;;5069460;28;20024;-75
2022/06/27 05:45:48;;;;;;;4.57;1.65;;;;;;;;;;5069113;28;20021;-75
2022/06/27 05:48:15;;;;;;;4.25;1.30;;;;;;;;;;5068922;28;20078;-74
2022/06/27 05:50:40;;;;;;;4.05;1.40;;;;;;;;;;5068641;28;20043;-73
2022/06/27 05:53:06;;;;;;;4.45;1.40;;;;;;;;;;5068984;28;20423;-72
2022/06/27 05:55:32;;;;;;;4.50;1.40;;;;;;;;;;5050779;28;20063;-75
2022/06/27 05:57:59;;;;;;;3.92;1.50;;;;;;;;;;5069151;28;20119;-76
2022/06/27 06:00:25;;;;;;;3.97;1.38;;;;;;;;;;5072543;28;20029;-75
2022/06/27 06:02:52;;;;;;;5.30;1.33;;;;;;;;;;5072714;28;20090;-74
2022/06/27 06:05:18;;;;;;;4.72;1.60;;;;;;;;;;5072550;28;20373;-73
2022/06/27 06:07:43;;;;;;;4.13;1.40;;;;;;;;;;5072370;28;20036;-73
2022/06/27 06:10:10;;;;;;;3.20;1.40;;;;;;;;;;5072024;28;20089;-74
2022/06/27 06:12:35;;;;;;;4.35;1.65;;;;;;;;;;5072421;28;20032;-74
2022/06/27 06:15:04;;;;;;;4.82;1.30;;;;;;;;;;5071992;28;20051;-75
2022/06/27 06:17:34;;;;;;;3.83;1.50;;;;;;;;;;5054479;28;20025;-77
2022/06/27 06:20:01;;;;;;;3.30;1.50;;;;;;;;;;5071900;28;20035;-70
2022/06/27 06:22:26;;;;;;;5.45;1.77;;;;;;;;;;5071907;28;20020;-71
2022/06/27 06:24:52;;;;;;;5.35;1.70;;;;;;;;;;5072218;28;20408;-70
2022/06/27 06:27:18;;;;;;;5.20;1.48;;;;;;;;;;5072149;28;20586;-71
2022/06/27 06:29:44;;;;;;;6.97;1.60;;;;;;;;;;5071652;28;20609;-71
2022/06/27 06:32:11;;;;;;;3.95;1.63;;;;;;;;;;5071773;28;20016;-71
2022/06/27 06:34:37;;;;;;;5.95;1.80;;;;;;;;;;5071818;28;20028;-71
2022/06/27 06:37:03;;;;;;;6.75;1.77;;;;;;;;;;5071442;28;20016;-70
2022/06/27 06:39:29;;;;;;;4.50;1.60;;;;;;;;;;5071536;28;20024;-71
2022/06/27 06:41:54;;;;;;;4.78;1.60;;;;;;;;;;5071767;28;20024;-70
2022/06/27 06:44:21;;;;;;;6.05;1.60;;;;;;;;;;5072241;28;20029;-70
2022/06/27 06:46:46;;;;;;;5.68;1.73;;;;;;;;;;5053449;28;20032;-71
2022/06/27 06:49:12;;;;;;;5.97;1.67;;;;;;;;;;5071580;28;20049;-70
2022/06/27 06:51:48;;;;;;;5.05;1.70;;;;;;;;;;5070937;28;20487;-70
2022/06/27 06:54:17;;;;;;;4.53;1.38;;;;;;;;;;5071526;28;20491;-73
2022/06/27 06:56:46;;;;;;;4.88;1.67;;;;;;;;;;5071510;28;20058;-71
2022/06/27 06:59:11;;;;;;;6.40;1.67;;;;;;;;;;5053520;28;20130;-71
2022/06/27 07:01:39;;;;;;;6.80;1.80;;;;;;;;;;5071550;28;20460;-71
2022/06/27 07:04:04;;;;;;;7.70;1.80;;;;;;;;;;5053624;28;20033;-71
2022/06/27 07:06:31;;;;;;;5.60;1.63;;;;;;;;;;5071146;28;20024;-72
2022/06/27 07:08:58;;;;;;;4.75;1.55;;;;;;;;;;5071212;28;20094;-72
2022/06/27 07:11:25;;;;;;;7.18;1.88;;;;;;;;;;5071072;28;20086;-72
2022/06/27 07:13:52;;;;;;;3.00;1.35;;;;;;;;;;5071238;28;20120;-72
2022/06/27 07:16:21;;;;;;;8.43;1.75;;;;;;;;;;5071175;28;20029;-73
2022/06/27 07:18:48;;;;;;;5.27;1.80;;;;;;;;;;5071127;28;20111;-72
2022/06/27 07:21:18;;;;;;;6.85;1.40;;;;;;;;;;5070655;28;20028;-71
2022/06/27 07:23:48;;;;;;;4.93;1.60;;;;;;;;;;5071290;28;20020;-71
2022/06/27 07:26:17;;;;;;;6.95;1.67;;;;;;;;;;5070693;28;20484;-72
2022/06/27 07:28:43;;;;;;;4.22;1.25;;;;;;;;;;5070851;28;20028;-71
2022/06/27 07:31:12;;;;;;;5.43;1.48;;;;;;;;;;5070634;28;20030;-70
2022/06/27 07:33:45;;;;;;;5.57;1.40;;;;;;;;;;5070859;28;20055;-72
2022/06/27 07:36:14;;;;;;;6.00;1.38;;;;;;;;;;5070321;28;20369;-71
2022/06/27 07:38:44;;;;;;;7.90;1.67;;;;;;;;;;5070802;28;20037;-71
2022/06/27 07:41:10;;;;;;;7.03;1.60;;;;;;;;;;5070599;28;20033;-73
2022/06/27 07:43:38;;;;;;;6.13;1.95;;;;;;;;;;5070810;28;20047;-71
2022/06/27 07:46:04;;;;;;;8.07;1.70;;;;;;;;;;5052557;28;20385;-72
2022/06/27 07:48:30;;;;;;;8.68;1.60;;;;;;;;;;5069996;28;20519;-72
2022/06/27 07:50:56;;;;;;;8.15;1.73;;;;;;;;;;5069811;28;20072;-72
2022/06/27 07:53:23;;;;;;;6.55;1.60;;;;;;;;;;5070632;28;20028;-73
2022/06/27 07:55:51;;;;;;;5.72;1.50;;;;;;;;;;5070323;28;20588;-71
2022/06/27 07:58:24;;;;;;;6.43;1.58;;;;;;;;;;5070366;28;20178;-71
2022/06/27 08:00:50;;;;;;;7.28;1.63;;;;;;;;;;5070312;28;20028;-72
2022/06/27 08:06:02;;;;;;;7.78;1.67;;;;;;;;;;5069904;28;20503;-75
2022/06/27 08:08:28;;;;;;;5.68;1.50;;;;;;;;;;5070017;28;20056;-70
2022/06/27 08:10:54;;;;;;;8.63;1.60;;;;;;;;;;5069716;28;20040;-74
2022/06/27 08:13:21;;;;;;;9.23;1.90;;;;;;;;;;5070185;28;20035;-71
2022/06/27 08:15:48;;;;;;;6.45;1.70;;;;;;;;;;5070022;28;20028;-72
2022/06/27 08:18:17;;;;;;;6.97;1.70;;;;;;;;;;5070105;28;20037;-71
2022/06/27 08:20:45;;;;;;;8.85;1.90;;;;;;;;;;5069119;28;20075;-73
2022/06/27 08:23:12;;;;;;;9.82;2.08;;;;;;;;;;5069924;28;20477;-72
2022/06/27 08:25:38;;;;;;;8.57;1.98;;;;;;;;;;5069851;28;20476;-73
2022/06/27 08:28:04;;;;;;;4.88;1.83;;;;;;;;;;5070066;28;20384;-71
2022/06/27 08:30:30;;;;;;;7.10;1.80;;;;;;;;;;5069791;28;20673;-71
2022/06/27 08:32:59;;;;;;;9.80;1.70;;;;;;;;;;5069782;28;20442;-71
2022/06/27 08:35:26;;;;;;;7.75;1.92;;;;;;;;;;5069912;28;20078;-71
2022/06/27 08:37:52;;;;;;;5.45;1.80;;;;;;;;;;5069327;28;20021;-73
2022/06/27 08:40:19;;;;;;;6.53;1.85;;;;;;;;;;5069553;28;20116;-71
2022/06/27 08:42:45;;;;;;;10.75;2.00;;;;;;;;;;5069533;28;20550;-72
2022/06/27 08:45:14;;;;;;;8.80;1.83;;;;;;;;;;5069569;28;20024;-72
2022/06/27 08:47:41;;;;;;;9.88;3.20;;;;;;;;;;5069543;28;20035;-73
2022/06/27 08:50:08;;;;;;;6.40;1.98;;;;;;;;;;5069255;28;20523;-73
2022/06/27 08:52:39;;;;;;;7.28;1.88;;;;;;;;;;5069484;28;20036;-71
2022/06/27 08:55:09;;;;;;;5.60;1.65;;;;;;;;;;5069608;28;20017;-72
2022/06/27 08:57:41;;;;;;;5.25;1.92;;;;;;;;;;5052311;28;20033;-71
2022/06/27 09:00:09;;;;;;;7.85;1.80;;;;;;;;;;5069531;28;20036;-73
2022/06/27 09:02:42;;;;;;;6.30;1.85;;;;;;;;;;5051750;28;20408;-74
2022/06/27 09:05:26;;;;;;;6.65;1.70;;;;;;;;;;5051459;28;20033;-72
2022/06/27 09:07:59;;;;;;;5.30;1.60;;;;;;;;;;5069133;28;20510;-70
2022/06/27 09:10:33;;;;;;;8.93;1.80;;;;;;;;;;5069538;28;20050;-71
2022/06/27 09:13:06;;;;;;;7.53;1.80;;;;;;;;;;5069448;28;20097;-71
2022/06/27 09:15:38;;;;;;;7.60;1.83;;;;;;;;;;5069667;28;20464;-73
2022/06/27 09:18:09;;;;;;;9.77;1.88;;;;;;;;;;5069306;28;20024;-71
2022/06/27 09:21:11;;;;;;;6.15;1.77;;;;;;;;;;5069024;28;20024;-71
2022/06/27 09:23:53;;;;;;;5.88;1.90;;;;;;;;;;4967989;28;20569;-73
2022/06/27 09:26:34;;;;;;;7.70;1.90;;;;;;;;;;5060274;28;20123;-73
2022/06/27 09:29:14;;;;;;;4.80;1.77;;;;;;;;;;5069162;28;20042;-71
2022/06/27 09:31:48;;;;;;;6.70;1.70;;;;;;;;;;5069338;28;20071;-73
2022/06/27 09:34:26;;;;;;;11.07;2.00;;;;;;;;;;5071776;28;20025;-73
2022/06/27 09:36:55;;;;;;;7.65;1.98;;;;;;;;;;5072740;28;20032;-73
2022/06/27 09:39:27;;;;;;;9.02;2.30;;;;;;;;;;5072653;28;20028;-76
2022/06/27 09:41:58;;;;;;;7.65;2.13;;;;;;;;;;5072674;28;20033;-72
2022/06/27 09:44:30;;;;;;;9.98;2.00;;;;;;;;;;5072775;28;20511;-75
2022/06/27 09:47:04;;;;;;;7.45;2.00;;;;;;;;;;5072668;28;20443;-71
2022/06/27 09:49:35;;;;;;;8.65;2.10;;;;;;;;;;5072661;28;20127;-72
2022/06/27 09:52:09;;;;;;;6.53;2.10;;;;;;;;;;5072454;28;20477;-74
2022/06/27 09:54:37;;;;;;;9.43;2.30;;;;;;;;;;5073139;28;20044;-71
2022/06/27 09:57:03;;;;;;;10.57;2.50;;;;;;;;;;5072620;28;20082;-72
2022/06/27 09:59:30;;;;;;;8.85;2.20;;;;;;;;;;5072395;28;20029;-71
2022/06/27 10:01:57;;;;;;;8.48;2.20;;;;;;;;;;5072361;28;20123;-74
2022/06/27 10:04:27;;;;;;;8.60;1.85;;;;;;;;;;5072517;28;20053;-71
2022/06/27 10:06:55;;;;;;;8.85;2.35;;;;;;;;;;5072019;28;20062;-72
2022/06/27 10:09:24;;;;;;;10.75;2.25;;;;;;;;;;5072442;28;20543;-71
2022/06/27 10:12:27;;;;;;;10.05;2.30;;;;;;;;;;5072505;28;20540;-74
2022/06/27 10:15:04;;;;;;;5.35;2.10;;;;;;;;;;5072618;28;20512;-74
2022/06/27 10:17:32;;;;;;;10.57;2.35;;;;;;;;;;5072194;28;20103;-75
2022/06/27 10:20:07;;;;;;;6.88;2.25;;;;;;;;;;5072177;28;20031;-72
2022/06/27 10:22:32;;;;;;;7.32;2.25;;;;;;;;;;5071705;28;20033;-74
2022/06/27 10:25:24;;;;;;;7.85;2.20;;;;;;;;;;5072188;28;20031;-71
2022/06/27 10:28:13;;;;;;;7.78;2.25;;;;;;;;;;5072056;28;20037;-70
2022/06/27 10:30:44;;;;;;;8.32;2.28;;;;;;;;;;5072180;28;20516;-72
2022/06/27 10:33:22;;;;;;;8.43;2.33;;;;;;;;;;5072057;28;20044;-76
2022/06/27 10:35:54;;;;;;;10.50;2.55;;;;;;;;;;5071759;28;20550;-76
2022/06/27 10:38:32;;;;;;;10.85;2.28;;;;;;;;;;5071825;28;20059;-73
2022/06/27 10:40:59;;;;;;;9.18;2.35;;;;;;;;;;5053836;28;20029;-75
2022/06/27 10:43:40;;;;;;;7.07;2.00;;;;;;;;;;5071666;28;20020;-75
2022/06/27 10:46:11;;;;;;;;;;;;;;;;;;5072148;28;20039;-75
2022/06/27 10:48:41;;;;;;;8.65;1.88;;;;;;;;;;5071711;28;20368;-75
2022/06/27 10:51:31;;;;;;;7.68;2.00;;;;;;;;;;5071391;28;20028;-76
2022/06/27 10:54:06;;;;;;;10.63;1.93;;;;;;;;;;5071992;28;20023;-74
2022/06/27 10:56:37;;;;;;;6.82;2.10;;;;;;;;;;5053733;28;20275;-74
2022/06/27 10:59:27;;;;;;;12.23;2.30;;;;;;;;;;5071313;28;20134;-72
2022/06/27 11:01:58;;;;;;;8.23;2.60;;;;;;;;;;5071359;28;20060;-71
2022/06/27 11:04:28;;;;;;;6.78;2.00;;;;;;;;;;5071130;28;20041;-71
2022/06/27 11:06:56;;;;;;;6.75;2.08;;;;;;;;;;5071214;28;20025;-71
2022/06/27 11:09:43;;;;;;;8.32;2.30;;;;;;;;;;5071238;28;20024;-77
2022/06/27 11:12:10;;;;;;;7.90;2.00;;;;;;;;;;5054804;28;20135;-74
2022/06/27 11:14:43;;;;;;;9.55;2.10;;;;;;;;;;5071168;28;20031;-70
2022/06/27 11:17:37;;;;;;;8.45;2.22;;;;;;;;;;5053271;28;20048;-75
2022/06/27 11:20:14;;;;;;;6.00;2.03;;;;;;;;;;5070725;28;20036;-73
2022/06/27 11:22:54;;;;;;;7.07;1.95;;;;;;;;;;5070702;28;20025;-72
2022/06/27 11:25:20;;;;;;;9.30;1.90;;;;;;;;;;5071137;28;20385;-75
2022/06/27 11:33:33;;;;;;;6.60;1.77;;;;;;;;;;5070587;28;20067;-74
2022/06/27 11:35:59;;;;;;;8.60;1.80;;;;;;;;;;5070521;28;20031;-73
2022/06/27 11:38:31;;;;;;;7.43;2.42;;;;;;;;;;5070279;28;20017;-76
2022/06/27 11:41:06;;;;;;;9.82;1.90;;;;;;;;;;5070723;28;20496;-75
2022/06/27 11:43:56;;;;;;;9.52;1.90;;;;;;;;;;5070473;28;20060;-75
2022/06/27 11:46:21;;;;;;;;;;;;;;;;;;5071116;28;20052;-70
2022/06/27 11:48:54;;;;;;;6.27;1.67;;;;;;;;;;5070277;28;19962;-75
2022/06/27 11:51:41;;;;;;;7.05;1.60;;;;;;;;;;5070133;28;20266;-75
2022/06/27 11:54:10;;;;;;;13.73;1.80;;;;;;;;;;5070024;28;20093;-73
2022/06/27 11:56:38;;;;;;;11.18;1.80;;;;;;;;;;5069513;28;20052;-74
2022/06/27 11:59:06;;;;;;;8.35;1.60;;;;;;;;;;5069915;28;20716;-72
2022/06/27 12:01:32;;;;;;;9.52;2.10;;;;;;;;;;5070304;28;20103;-72
2022/06/27 12:04:14;;;;;;;10.88;2.15;;;;;;;;;;5069930;28;20111;-74
2022/06/27 12:06:49;;;;;;;9.35;1.88;;;;;;;;;;5070138;28;20025;-76
2022/06/27 12:09:15;;;;;;;8.57;1.85;;;;;;;;;;5069947;28;20028;-72
2022/06/27 12:11:56;;;;;;;8.00;1.60;;;;;;;;;;5070167;28;20074;-71
2022/06/27 12:14:23;;;;;;;6.72;1.80;;;;;;;;;;5069596;28;20024;-72
2022/06/27 12:16:54;;;;;;;6.95;1.75;;;;;;;;;;5070080;28;20020;-71
2022/06/27 12:19:20;;;;;;;8.52;2.08;;;;;;;;;;5069957;28;20498;-71
2022/06/27 12:21:47;;;;;;;10.23;1.90;;;;;;;;;;5069677;28;20025;-70
2022/06/27 12:24:13;;;;;;;8.25;2.10;;;;;;;;;;5069808;28;20025;-72
2022/06/27 12:26:40;;;;;;;8.30;1.65;;;;;;;;;;5070387;28;20115;-73
2022/06/27 12:29:06;;;;;;;8.40;1.80;;;;;;;;;;5069978;28;20028;-71
2022/06/27 12:31:33;;;;;;;6.40;1.90;;;;;;;;;;5070125;28;20048;-72
2022/06/27 12:33:58;;;;;;;7.03;1.92;;;;;;;;;;5069532;28;20021;-72
2022/06/27 12:36:25;;;;;;;7.15;2.00;;;;;;;;;;5069564;28;20017;-70
2022/06/27 12:38:50;;;;;;;6.93;2.00;;;;;;;;;;5069817;28;20154;-71
2022/06/27 12:41:16;;;;;;;8.80;2.00;;;;;;;;;;5069810;28;20100;-73
2022/06/27 12:43:44;;;;;;;9.20;2.25;;;;;;;;;;5069732;28;20504;-71
2022/06/27 12:46:10;;;;;;;9.45;2.00;;;;;;;;;;5069867;28;20070;-71
2022/06/27 12:48:39;;;;;;;7.60;1.80;;;;;;;;;;5069816;28;20138;-71
2022/06/27 12:51:06;;;;;;;8.05;1.70;;;;;;;;;;5069170;28;20115;-72
2022/06/27 12:53:32;;;;;;;7.32;1.98;;;;;;;;;;5069742;28;20169;-71
2022/06/27 12:55:58;;;;;;;8.05;2.03;;;;;;;;;;5069821;28;20131;-71
2022/06/27 12:58:24;;;;;;;7.85;2.03;;;;;;;;;;5069642;28;20104;-72
2022/06/27 13:00:50;;;;;;;7.78;2.30;;;;;;;;;;5069570;28;20021;-75
2022/06/27 13:03:15;;;;;;;6.43;2.35;;;;;;;;;;5069542;28;20054;-76
2022/06/27 13:05:41;;;;;;;8.65;2.45;;;;;;;;;;5069200;28;20429;-73
2022/06/27 13:08:07;;;;;;;10.25;2.40;;;;;;;;;;5071822;28;20020;-76
2022/06/27 13:10:36;;;;;;;9.40;2.58;;;;;;;;;;5073467;28;20170;-75
2022/06/27 13:13:02;;;;;;;6.55;2.28;;;;;;;;;;5073352;28;20102;-74
2022/06/27 13:15:31;;;;;;;8.07;2.85;;;;;;;;;;5073229;28;20399;-73
2022/06/27 13:17:56;;;;;;;8.45;2.42;;;;;;;;;;5073439;28;20020;-74
2022/06/27 13:20:22;;;;;;;6.18;2.20;;;;;;;;;;5073206;28;20078;-72
2022/06/27 13:22:48;;;;;;;8.30;2.47;;;;;;;;;;5073199;28;20070;-74
2022/06/27 13:25:13;;;;;;;9.45;2.15;;;;;;;;;;5073006;28;20020;-71
2022/06/27 13:27:39;;;;;;;5.53;2.10;;;;;;;;;;5073431;28;20438;-73
2022/06/27 13:30:06;;;;;;;6.88;2.08;;;;;;;;;;5073215;28;20435;-70
2022/06/27 13:32:32;;;;;;;6.40;2.05;;;;;;;;;;5073060;28;20044;-71
2022/06/27 13:34:57;;;;;;;6.63;2.00;;;;;;;;;;5072602;28;20033;-71
2022/06/27 13:37:23;;;;;;;8.15;2.63;;;;;;;;;;5072742;28;20027;-71
2022/06/27 13:39:48;;;;;;;7.47;1.95;;;;;;;;;;5072797;28;20027;-72
2022/06/27 13:42:14;;;;;;;10.70;2.15;;;;;;;;;;5073093;28;20028;-72
2022/06/27 13:44:39;;;;;;;11.05;2.42;;;;;;;;;;5072840;28;20024;-71
2022/06/27 13:47:05;;;;;;;4.72;1.80;;;;;;;;;;5054761;28;20507;-71
2022/06/27 13:49:30;;;;;;;8.50;2.22;;;;;;;;;;5072534;28;20496;-71
2022/06/27 13:51:56;;;;;;;7.10;2.00;;;;;;;;;;5072373;28;20027;-75
2022/06/27 13:54:21;;;;;;;7.53;2.30;;;;;;;;;;5072247;28;20028;-71
2022/06/27 13:56:47;;;;;;;8.65;2.35;;;;;;;;;;5072768;28;20433;-71
2022/06/27 13:59:13;;;;;;;8.77;2.30;;;;;;;;;;5072704;28;20024;-71
2022/06/27 14:01:42;;;;;;;10.25;2.20;;;;;;;;;;5072690;28;20511;-74
2022/06/27 14:04:08;;;;;;;7.75;2.13;;;;;;;;;;5072621;28;20025;-70
2022/06/27 14:09:17;;;;;;;8.50;2.90;;;;;;;;;;5072391;28;20056;-70
2022/06/27 14:11:43;;;;;;;10.38;2.80;;;;;;;;;;5071990;28;20395;-71
2022/06/27 14:14:08;;;;;;;9.18;2.70;;;;;;;;;;5072207;28;20031;-71
2022/06/27 14:16:34;;;;;;;9.82;2.53;;;;;;;;;;5072408;28;20035;-71
2022/06/27 14:19:01;;;;;;;8.25;2.63;;;;;;;;;;5071695;28;20021;-73
2022/06/27 14:21:27;;;;;;;9.10;2.30;;;;;;;;;;5071689;28;20548;-77
2022/06/27 14:23:52;;;;;;;7.38;2.30;;;;;;;;;;5072155;28;20048;-76
2022/06/27 14:26:18;;;;;;;8.02;2.50;;;;;;;;;;5071889;28;20380;-75
2022/06/27 14:28:43;;;;;;;13.13;2.80;;;;;;;;;;5072040;28;20023;-75
2022/06/27 14:31:09;;;;;;;9.13;2.53;;;;;;;;;;5071776;28;20021;-75
2022/06/27 14:33:35;;;;;;;7.75;2.30;;;;;;;;;;5071907;28;20055;-75
2022/06/27 14:36:01;;;;;;;10.90;2.63;;;;;;;;;;5071507;28;20017;-75
2022/06/27 14:38:27;;;;;;;7.57;2.50;;;;;;;;;;5072057;28;20113;-76
2022/06/27 14:40:53;;;;;;;9.02;2.45;;;;;;;;;;5071974;28;20570;-76
2022/06/27 14:43:19;;;;;;;9.75;2.50;;;;;;;;;;5072008;28;20067;-74
2022/06/27 14:45:47;;;;;;;7.60;3.10;;;;;;;;;;5071471;28;20379;-75
2022/06/27 14:48:12;;;;;;;8.95;2.65;;;;;;;;;;5071794;28;20016;-77
2022/06/27 14:50:38;;;;;;;8.20;2.65;;;;;;;;;;5071046;28;20123;-74
2022/06/27 14:53:03;;;;;;;7.20;2.47;;;;;;;;;;5071725;28;20866;-72
2022/06/27 14:55:29;;;;;;;9.55;2.60;;;;;;;;;;5071588;28;20028;-76
2022/06/27 14:57:54;;;;;;;9.13;2.47;;;;;;;;;;5071878;28;20509;-75
2022/06/27 15:00:19;;;;;;;10.02;2.50;;;;;;;;;;5071395;28;20025;-74
2022/06/27 15:02:45;;;;;;;8.00;2.50;;;;;;;;;;5071576;28;20052;-75